sensor_id;sensor_type;location;lat;lon;timestamp;P1;durP1;ratioP1;P2;durP2;ratioP2
52724;SDS011;38621;52.830;6.914;2022-08-02T00:00:14;2.95;;;1.05;;
52724;SDS011;38621;52.830;6.914;2022-08-02T00:02:41;2.80;;;1.67;;
52724;SDS011;38621;52.830;6.914;2022-08-02T00:05:07;2.83;;;2.03;;
52724;SDS011;38621;52.830;6.914;2022-08-02T00:07:34;3.03;;;1.73;;
52724;SDS011;38621;52.830;6.914;2022-08-02T00:10:00;4.90;;;2.20;;
52724;SDS011;38621;52.830;6.914;2022-08-02T00:12:25;3.50;;;1.67;;
52724;SDS011;38621;52.830;6.914;2022-08-02T00:14:51;2.60;;;1.80;;
52724;SDS011;38621;52.830;6.914;2022-08-02T00:17:17;4.60;;;2.20;;
52724;SDS011;38621;52.830;6.914;2022-08-02T00:19:43;3.38;;;1.65;;
52724;SDS011;38621;52.830;6.914;2022-08-02T00:22:09;2.60;;;1.48;;
52724;SDS011;38621;52.830;6.914;2022-08-02T00:24:35;4.10;;;1.63;;
52724;SDS011;38621;52.830;6.914;2022-08-02T00:27:00;2.70;;;1.50;;
52724;SDS011;38621;52.830;6.914;2022-08-02T00:29:32;2.58;;;1.52;;
52724;SDS011;38621;52.830;6.914;2022-08-02T00:31:58;2.85;;;1.48;;
52724;SDS011;38621;52.830;6.914;2022-08-02T00:34:24;2.90;;;1.58;;
52724;SDS011;38621;52.830;6.914;2022-08-02T00:36:49;2.83;;;1.95;;
52724;SDS011;38621;52.830;6.914;2022-08-02T00:39:15;2.92;;;1.80;;
52724;SDS011;38621;52.830;6.914;2022-08-02T00:41:45;2.78;;;1.80;;
52724;SDS011;38621;52.830;6.914;2022-08-02T00:44:12;6.00;;;1.95;;
52724;SDS011;38621;52.830;6.914;2022-08-02T00:46:39;2.47;;;1.73;;
52724;SDS011;38621;52.830;6.914;2022-08-02T00:49:05;4.22;;;1.70;;
52724;SDS011;38621;52.830;6.914;2022-08-02T00:51:30;4.00;;;1.80;;
52724;SDS011;38621;52.830;6.914;2022-08-02T00:53:56;3.78;;;1.65;;
52724;SDS011;38621;52.830;6.914;2022-08-02T00:56:22;2.92;;;1.80;;
52724;SDS011;38621;52.830;6.914;2022-08-02T00:58:47;2.33;;;1.52;;
52724;SDS011;38621;52.830;6.914;2022-08-02T01:01:13;5.10;;;2.90;;
52724;SDS011;38621;52.830;6.914;2022-08-02T01:03:39;5.05;;;2.83;;
52724;SDS011;38621;52.830;6.914;2022-08-02T01:06:05;4.47;;;2.78;;
52724;SDS011;38621;52.830;6.914;2022-08-02T01:08:31;5.00;;;2.53;;
52724;SDS011;38621;52.830;6.914;2022-08-02T01:10:57;4.63;;;2.78;;
52724;SDS011;38621;52.830;6.914;2022-08-02T01:13:22;4.05;;;2.40;;
52724;SDS011;38621;52.830;6.914;2022-08-02T01:15:52;3.40;;;2.22;;
52724;SDS011;38621;52.830;6.914;2022-08-02T01:18:29;4.38;;;2.72;;
52724;SDS011;38621;52.830;6.914;2022-08-02T01:21:04;5.65;;;2.65;;
52724;SDS011;38621;52.830;6.914;2022-08-02T01:26:42;3.97;;;2.83;;
52724;SDS011;38621;52.830;6.914;2022-08-02T01:32:05;5.43;;;2.70;;
52724;SDS011;38621;52.830;6.914;2022-08-02T01:37:10;3.40;;;2.47;;
52724;SDS011;38621;52.830;6.914;2022-08-02T01:39:56;4.72;;;2.97;;
52724;SDS011;38621;52.830;6.914;2022-08-02T01:42:29;3.88;;;2.72;;
52724;SDS011;38621;52.830;6.914;2022-08-02T01:44:56;4.18;;;2.40;;
52724;SDS011;38621;52.830;6.914;2022-08-02T01:47:30;5.72;;;2.88;;
52724;SDS011;38621;52.830;6.914;2022-08-02T01:49:59;4.85;;;2.60;;
52724;SDS011;38621;52.830;6.914;2022-08-02T01:52:28;7.05;;;2.80;;
52724;SDS011;38621;52.830;6.914;2022-08-02T01:55:04;6.05;;;2.63;;
52724;SDS011;38621;52.830;6.914;2022-08-02T01:57:40;4.03;;;2.70;;
52724;SDS011;38621;52.830;6.914;2022-08-02T02:00:10;6.30;;;2.80;;
52724;SDS011;38621;52.830;6.914;2022-08-02T02:02:37;4.70;;;2.53;;
52724;SDS011;38621;52.830;6.914;2022-08-02T02:05:07;5.53;;;2.70;;
52724;SDS011;38621;52.830;6.914;2022-08-02T02:07:37;3.40;;;2.33;;
52724;SDS011;38621;52.830;6.914;2022-08-02T02:10:04;4.03;;;2.40;;
52724;SDS011;38621;52.830;6.914;2022-08-02T02:12:32;4.45;;;2.58;;
52724;SDS011;38621;52.830;6.914;2022-08-02T02:15:01;4.80;;;2.70;;
52724;SDS011;38621;52.830;6.914;2022-08-02T02:17:28;4.20;;;2.63;;
52724;SDS011;38621;52.830;6.914;2022-08-02T02:19:55;7.53;;;2.95;;
52724;SDS011;38621;52.830;6.914;2022-08-02T02:22:24;6.35;;;2.55;;
52724;SDS011;38621;52.830;6.914;2022-08-02T02:24:50;4.53;;;2.70;;
52724;SDS011;38621;52.830;6.914;2022-08-02T02:27:15;5.60;;;2.63;;
52724;SDS011;38621;52.830;6.914;2022-08-02T02:29:43;3.38;;;2.60;;
52724;SDS011;38621;52.830;6.914;2022-08-02T02:32:11;4.10;;;2.67;;
52724;SDS011;38621;52.830;6.914;2022-08-02T02:34:41;5.03;;;3.10;;
52724;SDS011;38621;52.830;6.914;2022-08-02T02:37:13;3.90;;;2.30;;
52724;SDS011;38621;52.830;6.914;2022-08-02T02:39:43;4.25;;;2.65;;
52724;SDS011;38621;52.830;6.914;2022-08-02T02:42:10;4.38;;;2.75;;
52724;SDS011;38621;52.830;6.914;2022-08-02T02:44:38;4.95;;;2.78;;
52724;SDS011;38621;52.830;6.914;2022-08-02T02:47:05;3.42;;;2.53;;
52724;SDS011;38621;52.830;6.914;2022-08-02T02:49:33;3.45;;;2.50;;
52724;SDS011;38621;52.830;6.914;2022-08-02T02:52:00;5.00;;;2.70;;
52724;SDS011;38621;52.830;6.914;2022-08-02T02:54:27;4.70;;;2.85;;
52724;SDS011;38621;52.830;6.914;2022-08-02T02:56:54;4.75;;;2.38;;
52724;SDS011;38621;52.830;6.914;2022-08-02T02:59:20;4.80;;;2.78;;
52724;SDS011;38621;52.830;6.914;2022-08-02T03:01:46;5.85;;;2.88;;
52724;SDS011;38621;52.830;6.914;2022-08-02T03:04:12;4.85;;;2.50;;
52724;SDS011;38621;52.830;6.914;2022-08-02T03:06:39;4.68;;;2.35;;
52724;SDS011;38621;52.830;6.914;2022-08-02T03:09:05;4.00;;;2.58;;
52724;SDS011;38621;52.830;6.914;2022-08-02T03:11:32;5.63;;;2.83;;
52724;SDS011;38621;52.830;6.914;2022-08-02T03:14:00;5.32;;;2.80;;
52724;SDS011;38621;52.830;6.914;2022-08-02T03:16:27;4.50;;;2.85;;
52724;SDS011;38621;52.830;6.914;2022-08-02T03:18:55;4.47;;;2.47;;
52724;SDS011;38621;52.830;6.914;2022-08-02T03:21:22;4.40;;;2.72;;
52724;SDS011;38621;52.830;6.914;2022-08-02T03:23:48;5.53;;;3.00;;
52724;SDS011;38621;52.830;6.914;2022-08-02T03:26:14;7.13;;;2.90;;
52724;SDS011;38621;52.830;6.914;2022-08-02T03:28:40;3.88;;;2.65;;
52724;SDS011;38621;52.830;6.914;2022-08-02T03:31:07;3.78;;;2.47;;
52724;SDS011;38621;52.830;6.914;2022-08-02T03:33:33;3.60;;;2.35;;
52724;SDS011;38621;52.830;6.914;2022-08-02T03:36:07;4.10;;;2.40;;
52724;SDS011;38621;52.830;6.914;2022-08-02T03:38:37;3.47;;;1.98;;
52724;SDS011;38621;52.830;6.914;2022-08-02T03:41:05;3.55;;;2.15;;
52724;SDS011;38621;52.830;6.914;2022-08-02T03:43:32;3.97;;;2.85;;
52724;SDS011;38621;52.830;6.914;2022-08-02T03:46:00;4.80;;;2.85;;
52724;SDS011;38621;52.830;6.914;2022-08-02T03:48:28;3.30;;;2.50;;
52724;SDS011;38621;52.830;6.914;2022-08-02T03:50:57;4.35;;;3.00;;
52724;SDS011;38621;52.830;6.914;2022-08-02T03:53:23;3.38;;;2.38;;
52724;SDS011;38621;52.830;6.914;2022-08-02T03:55:49;4.13;;;2.45;;
52724;SDS011;38621;52.830;6.914;2022-08-02T03:58:19;6.05;;;2.78;;
52724;SDS011;38621;52.830;6.914;2022-08-02T04:00:46;3.80;;;2.92;;
52724;SDS011;38621;52.830;6.914;2022-08-02T04:03:12;3.67;;;2.83;;
52724;SDS011;38621;52.830;6.914;2022-08-02T04:05:38;3.65;;;2.60;;
52724;SDS011;38621;52.830;6.914;2022-08-02T04:08:04;7.07;;;2.85;;
52724;SDS011;38621;52.830;6.914;2022-08-02T04:10:30;4.55;;;2.80;;
52724;SDS011;38621;52.830;6.914;2022-08-02T04:12:56;3.83;;;2.50;;
52724;SDS011;38621;52.830;6.914;2022-08-02T04:15:22;4.03;;;2.50;;
52724;SDS011;38621;52.830;6.914;2022-08-02T04:17:50;5.43;;;3.20;;
52724;SDS011;38621;52.830;6.914;2022-08-02T04:20:21;4.88;;;2.50;;
52724;SDS011;38621;52.830;6.914;2022-08-02T04:23:05;6.03;;;2.92;;
52724;SDS011;38621;52.830;6.914;2022-08-02T04:25:34;4.78;;;2.90;;
52724;SDS011;38621;52.830;6.914;2022-08-02T04:28:01;7.13;;;2.92;;
52724;SDS011;38621;52.830;6.914;2022-08-02T04:30:27;4.53;;;3.17;;
52724;SDS011;38621;52.830;6.914;2022-08-02T04:32:54;7.05;;;3.00;;
52724;SDS011;38621;52.830;6.914;2022-08-02T04:35:20;5.50;;;2.78;;
52724;SDS011;38621;52.830;6.914;2022-08-02T04:37:47;4.85;;;3.00;;
52724;SDS011;38621;52.830;6.914;2022-08-02T04:40:13;6.50;;;2.85;;
52724;SDS011;38621;52.830;6.914;2022-08-02T04:42:40;5.90;;;3.08;;
52724;SDS011;38621;52.830;6.914;2022-08-02T04:45:06;5.10;;;3.30;;
52724;SDS011;38621;52.830;6.914;2022-08-02T04:47:33;5.57;;;3.22;;
52724;SDS011;38621;52.830;6.914;2022-08-02T04:49:59;4.43;;;2.67;;
52724;SDS011;38621;52.830;6.914;2022-08-02T04:52:25;4.65;;;3.20;;
52724;SDS011;38621;52.830;6.914;2022-08-02T04:54:51;4.72;;;3.30;;
52724;SDS011;38621;52.830;6.914;2022-08-02T04:57:18;5.80;;;2.83;;
52724;SDS011;38621;52.830;6.914;2022-08-02T05:00:03;4.57;;;3.17;;
52724;SDS011;38621;52.830;6.914;2022-08-02T05:02:31;4.95;;;2.67;;
52724;SDS011;38621;52.830;6.914;2022-08-02T05:04:56;4.90;;;3.20;;
52724;SDS011;38621;52.830;6.914;2022-08-02T05:07:22;4.78;;;2.85;;
52724;SDS011;38621;52.830;6.914;2022-08-02T05:09:48;4.75;;;3.33;;
52724;SDS011;38621;52.830;6.914;2022-08-02T05:12:13;6.40;;;2.92;;
52724;SDS011;38621;52.830;6.914;2022-08-02T05:14:39;6.55;;;3.10;;
52724;SDS011;38621;52.830;6.914;2022-08-02T05:17:05;5.32;;;3.38;;
52724;SDS011;38621;52.830;6.914;2022-08-02T05:19:30;6.75;;;2.50;;
52724;SDS011;38621;52.830;6.914;2022-08-02T05:21:56;4.03;;;2.92;;
52724;SDS011;38621;52.830;6.914;2022-08-02T05:24:22;5.82;;;3.00;;
52724;SDS011;38621;52.830;6.914;2022-08-02T05:26:47;8.50;;;3.17;;
52724;SDS011;38621;52.830;6.914;2022-08-02T05:29:15;5.80;;;3.08;;
52724;SDS011;38621;52.830;6.914;2022-08-02T05:31:40;6.50;;;2.88;;
52724;SDS011;38621;52.830;6.914;2022-08-02T05:34:06;6.15;;;2.95;;
52724;SDS011;38621;52.830;6.914;2022-08-02T05:36:32;4.60;;;2.55;;
52724;SDS011;38621;52.830;6.914;2022-08-02T05:38:58;6.78;;;2.80;;
52724;SDS011;38621;52.830;6.914;2022-08-02T05:41:23;4.88;;;2.70;;
52724;SDS011;38621;52.830;6.914;2022-08-02T05:43:49;4.78;;;2.80;;
52724;SDS011;38621;52.830;6.914;2022-08-02T05:46:15;5.13;;;2.63;;
52724;SDS011;38621;52.830;6.914;2022-08-02T05:48:40;4.80;;;2.47;;
52724;SDS011;38621;52.830;6.914;2022-08-02T05:51:10;6.72;;;2.90;;
52724;SDS011;38621;52.830;6.914;2022-08-02T05:53:45;4.55;;;2.40;;
52724;SDS011;38621;52.830;6.914;2022-08-02T05:56:24;4.28;;;2.83;;
52724;SDS011;38621;52.830;6.914;2022-08-02T06:01:32;6.10;;;2.85;;
52724;SDS011;38621;52.830;6.914;2022-08-02T06:04:03;7.10;;;3.22;;
52724;SDS011;38621;52.830;6.914;2022-08-02T06:06:42;6.50;;;2.60;;
52724;SDS011;38621;52.830;6.914;2022-08-02T06:09:13;4.60;;;2.90;;
52724;SDS011;38621;52.830;6.914;2022-08-02T06:11:42;4.78;;;2.80;;
52724;SDS011;38621;52.830;6.914;2022-08-02T06:14:10;6.43;;;3.13;;
52724;SDS011;38621;52.830;6.914;2022-08-02T06:16:37;4.72;;;2.83;;
52724;SDS011;38621;52.830;6.914;2022-08-02T06:19:04;5.40;;;3.30;;
52724;SDS011;38621;52.830;6.914;2022-08-02T06:21:30;7.85;;;2.72;;
52724;SDS011;38621;52.830;6.914;2022-08-02T06:23:57;5.60;;;2.97;;
52724;SDS011;38621;52.830;6.914;2022-08-02T06:26:23;3.95;;;2.78;;
52724;SDS011;38621;52.830;6.914;2022-08-02T06:28:51;5.97;;;2.65;;
52724;SDS011;38621;52.830;6.914;2022-08-02T06:31:18;5.75;;;2.80;;
52724;SDS011;38621;52.830;6.914;2022-08-02T06:33:44;5.05;;;2.95;;
52724;SDS011;38621;52.830;6.914;2022-08-02T06:38:54;5.28;;;2.90;;
52724;SDS011;38621;52.830;6.914;2022-08-02T06:41:27;6.43;;;2.90;;
52724;SDS011;38621;52.830;6.914;2022-08-02T06:44:02;5.60;;;2.70;;
52724;SDS011;38621;52.830;6.914;2022-08-02T06:46:28;4.93;;;2.90;;
52724;SDS011;38621;52.830;6.914;2022-08-02T06:48:54;3.15;;;2.30;;
52724;SDS011;38621;52.830;6.914;2022-08-02T06:51:20;4.07;;;2.28;;
52724;SDS011;38621;52.830;6.914;2022-08-02T06:53:47;4.97;;;2.50;;
52724;SDS011;38621;52.830;6.914;2022-08-02T06:56:13;5.07;;;2.30;;
52724;SDS011;38621;52.830;6.914;2022-08-02T06:58:39;4.35;;;2.38;;
52724;SDS011;38621;52.830;6.914;2022-08-02T07:01:05;4.88;;;2.25;;
52724;SDS011;38621;52.830;6.914;2022-08-02T07:03:34;4.70;;;2.40;;
52724;SDS011;38621;52.830;6.914;2022-08-02T07:06:02;3.22;;;2.10;;
52724;SDS011;38621;52.830;6.914;2022-08-02T07:08:28;4.75;;;2.35;;
52724;SDS011;38621;52.830;6.914;2022-08-02T07:10:58;4.13;;;2.20;;
52724;SDS011;38621;52.830;6.914;2022-08-02T07:13:25;5.22;;;2.20;;
52724;SDS011;38621;52.830;6.914;2022-08-02T07:15:52;4.05;;;2.10;;
52724;SDS011;38621;52.830;6.914;2022-08-02T07:18:18;4.05;;;2.10;;
52724;SDS011;38621;52.830;6.914;2022-08-02T07:20:44;3.67;;;1.70;;
52724;SDS011;38621;52.830;6.914;2022-08-02T07:23:10;4.30;;;1.90;;
52724;SDS011;38621;52.830;6.914;2022-08-02T07:25:36;5.30;;;2.10;;
52724;SDS011;38621;52.830;6.914;2022-08-02T07:28:01;3.58;;;2.10;;
52724;SDS011;38621;52.830;6.914;2022-08-02T07:30:28;3.42;;;1.80;;
52724;SDS011;38621;52.830;6.914;2022-08-02T07:32:56;2.63;;;1.50;;
52724;SDS011;38621;52.830;6.914;2022-08-02T07:35:22;2.25;;;1.20;;
52724;SDS011;38621;52.830;6.914;2022-08-02T07:37:48;4.97;;;1.35;;
52724;SDS011;38621;52.830;6.914;2022-08-02T07:40:14;3.83;;;1.60;;
52724;SDS011;38621;52.830;6.914;2022-08-02T07:42:43;3.17;;;1.30;;
52724;SDS011;38621;52.830;6.914;2022-08-02T07:45:09;3.50;;;1.30;;
52724;SDS011;38621;52.830;6.914;2022-08-02T07:47:37;4.28;;;1.40;;
52724;SDS011;38621;52.830;6.914;2022-08-02T07:50:07;3.65;;;1.33;;
52724;SDS011;38621;52.830;6.914;2022-08-02T07:52:34;2.90;;;1.13;;
52724;SDS011;38621;52.830;6.914;2022-08-02T07:54:59;2.85;;;1.23;;
52724;SDS011;38621;52.830;6.914;2022-08-02T07:57:25;3.45;;;1.23;;
52724;SDS011;38621;52.830;6.914;2022-08-02T07:59:51;3.33;;;1.05;;
52724;SDS011;38621;52.830;6.914;2022-08-02T08:02:17;3.65;;;1.10;;
52724;SDS011;38621;52.830;6.914;2022-08-02T08:04:43;2.88;;;1.02;;
52724;SDS011;38621;52.830;6.914;2022-08-02T08:07:08;2.65;;;0.90;;
52724;SDS011;38621;52.830;6.914;2022-08-02T08:09:36;2.28;;;1.20;;
52724;SDS011;38621;52.830;6.914;2022-08-02T08:12:05;2.80;;;1.27;;
52724;SDS011;38621;52.830;6.914;2022-08-02T08:14:34;2.72;;;1.00;;
52724;SDS011;38621;52.830;6.914;2022-08-02T08:17:00;2.40;;;1.02;;
52724;SDS011;38621;52.830;6.914;2022-08-02T08:19:26;2.05;;;0.90;;
52724;SDS011;38621;52.830;6.914;2022-08-02T08:21:51;2.88;;;1.10;;
52724;SDS011;38621;52.830;6.914;2022-08-02T08:24:17;3.47;;;1.00;;
52724;SDS011;38621;52.830;6.914;2022-08-02T08:26:42;2.60;;;1.02;;
52724;SDS011;38621;52.830;6.914;2022-08-02T08:29:08;1.73;;;0.90;;
52724;SDS011;38621;52.830;6.914;2022-08-02T08:31:34;2.60;;;1.10;;
52724;SDS011;38621;52.830;6.914;2022-08-02T08:34:00;1.98;;;1.00;;
52724;SDS011;38621;52.830;6.914;2022-08-02T08:36:26;3.00;;;1.33;;
52724;SDS011;38621;52.830;6.914;2022-08-02T08:38:52;2.22;;;1.00;;
52724;SDS011;38621;52.830;6.914;2022-08-02T08:41:18;2.95;;;1.00;;
52724;SDS011;38621;52.830;6.914;2022-08-02T08:43:44;2.35;;;1.00;;
52724;SDS011;38621;52.830;6.914;2022-08-02T08:46:13;2.00;;;1.00;;
52724;SDS011;38621;52.830;6.914;2022-08-02T08:48:52;3.25;;;1.20;;
52724;SDS011;38621;52.830;6.914;2022-08-02T08:51:20;1.90;;;0.98;;
52724;SDS011;38621;52.830;6.914;2022-08-02T08:53:48;3.72;;;1.13;;
52724;SDS011;38621;52.830;6.914;2022-08-02T08:56:14;2.28;;;1.25;;
52724;SDS011;38621;52.830;6.914;2022-08-02T08:58:41;2.58;;;1.05;;
52724;SDS011;38621;52.830;6.914;2022-08-02T09:01:08;2.03;;;1.02;;
52724;SDS011;38621;52.830;6.914;2022-08-02T09:03:35;3.70;;;1.00;;
52724;SDS011;38621;52.830;6.914;2022-08-02T09:06:01;2.78;;;1.00;;
52724;SDS011;38621;52.830;6.914;2022-08-02T09:08:27;1.88;;;0.98;;
52724;SDS011;38621;52.830;6.914;2022-08-02T09:10:52;2.25;;;1.20;;
52724;SDS011;38621;52.830;6.914;2022-08-02T09:13:26;4.15;;;1.20;;
52724;SDS011;38621;52.830;6.914;2022-08-02T09:15:56;2.63;;;1.25;;
52724;SDS011;38621;52.830;6.914;2022-08-02T09:18:33;2.97;;;1.15;;
52724;SDS011;38621;52.830;6.914;2022-08-02T09:21:08;3.30;;;1.30;;
52724;SDS011;38621;52.830;6.914;2022-08-02T09:23:37;2.25;;;0.95;;
52724;SDS011;38621;52.830;6.914;2022-08-02T09:26:05;2.88;;;1.40;;
52724;SDS011;38621;52.830;6.914;2022-08-02T09:28:33;2.85;;;1.33;;
52724;SDS011;38621;52.830;6.914;2022-08-02T09:33:34;2.65;;;1.17;;
52724;SDS011;38621;52.830;6.914;2022-08-02T09:36:04;2.72;;;1.20;;
52724;SDS011;38621;52.830;6.914;2022-08-02T09:38:31;2.40;;;1.30;;
52724;SDS011;38621;52.830;6.914;2022-08-02T09:40:58;2.33;;;1.20;;
52724;SDS011;38621;52.830;6.914;2022-08-02T09:43:40;3.20;;;1.50;;
52724;SDS011;38621;52.830;6.914;2022-08-02T09:48:44;2.60;;;1.27;;
52724;SDS011;38621;52.830;6.914;2022-08-02T09:51:16;2.13;;;0.95;;
52724;SDS011;38621;52.830;6.914;2022-08-02T09:53:47;2.33;;;0.95;;
52724;SDS011;38621;52.830;6.914;2022-08-02T09:56:15;2.95;;;1.20;;
52724;SDS011;38621;52.830;6.914;2022-08-02T09:58:42;2.70;;;1.10;;
52724;SDS011;38621;52.830;6.914;2022-08-02T10:01:08;2.72;;;1.20;;
52724;SDS011;38621;52.830;6.914;2022-08-02T10:03:34;2.20;;;1.20;;
52724;SDS011;38621;52.830;6.914;2022-08-02T10:06:00;3.10;;;1.20;;
52724;SDS011;38621;52.830;6.914;2022-08-02T10:08:27;2.40;;;0.93;;
52724;SDS011;38621;52.830;6.914;2022-08-02T10:10:53;2.53;;;1.02;;
52724;SDS011;38621;52.830;6.914;2022-08-02T10:13:35;2.20;;;1.13;;
52724;SDS011;38621;52.830;6.914;2022-08-02T10:16:01;5.32;;;1.27;;
52724;SDS011;38621;52.830;6.914;2022-08-02T10:18:28;2.42;;;1.30;;
52724;SDS011;38621;52.830;6.914;2022-08-02T10:20:55;2.38;;;1.45;;
52724;SDS011;38621;52.830;6.914;2022-08-02T10:23:24;2.33;;;1.42;;
52724;SDS011;38621;52.830;6.914;2022-08-02T10:25:52;2.25;;;1.60;;
52724;SDS011;38621;52.830;6.914;2022-08-02T10:28:27;2.95;;;1.70;;
52724;SDS011;38621;52.830;6.914;2022-08-02T10:30:57;2.50;;;1.40;;
52724;SDS011;38621;52.830;6.914;2022-08-02T10:33:25;3.25;;;1.80;;
52724;SDS011;38621;52.830;6.914;2022-08-02T10:35:53;2.38;;;1.55;;
52724;SDS011;38621;52.830;6.914;2022-08-02T10:38:25;3.63;;;1.55;;
52724;SDS011;38621;52.830;6.914;2022-08-02T10:40:52;3.05;;;1.77;;
52724;SDS011;38621;52.830;6.914;2022-08-02T10:51:34;3.03;;;1.75;;
52724;SDS011;38621;52.830;6.914;2022-08-02T10:54:17;4.97;;;2.08;;
52724;SDS011;38621;52.830;6.914;2022-08-02T10:56:45;2.83;;;2.08;;
52724;SDS011;38621;52.830;6.914;2022-08-02T10:59:28;3.60;;;2.00;;
52724;SDS011;38621;52.830;6.914;2022-08-02T11:02:00;3.67;;;2.25;;
52724;SDS011;38621;52.830;6.914;2022-08-02T11:09:41;2.88;;;2.00;;
52724;SDS011;38621;52.830;6.914;2022-08-02T11:12:11;3.00;;;1.88;;
52724;SDS011;38621;52.830;6.914;2022-08-02T11:14:40;3.50;;;1.90;;
52724;SDS011;38621;52.830;6.914;2022-08-02T11:22:37;2.70;;;2.00;;
52724;SDS011;38621;52.830;6.914;2022-08-02T11:27:46;2.90;;;2.10;;
52724;SDS011;38621;52.830;6.914;2022-08-02T11:30:16;2.70;;;1.90;;
52724;SDS011;38621;52.830;6.914;2022-08-02T11:32:42;2.78;;;1.90;;
52724;SDS011;38621;52.830;6.914;2022-08-02T11:35:07;3.38;;;2.30;;
52724;SDS011;38621;52.830;6.914;2022-08-02T11:37:34;4.00;;;1.90;;
52724;SDS011;38621;52.830;6.914;2022-08-02T11:40:03;4.05;;;2.15;;
52724;SDS011;38621;52.830;6.914;2022-08-02T11:42:36;2.78;;;2.00;;
52724;SDS011;38621;52.830;6.914;2022-08-02T11:45:04;4.55;;;2.47;;
52724;SDS011;38621;52.830;6.914;2022-08-02T11:47:31;3.05;;;1.83;;
52724;SDS011;38621;52.830;6.914;2022-08-02T11:50:06;2.75;;;1.83;;
52724;SDS011;38621;52.830;6.914;2022-08-02T11:52:33;4.05;;;1.98;;
52724;SDS011;38621;52.830;6.914;2022-08-02T11:55:00;2.70;;;2.00;;
52724;SDS011;38621;52.830;6.914;2022-08-02T11:57:26;2.38;;;1.60;;
52724;SDS011;38621;52.830;6.914;2022-08-02T11:59:52;2.75;;;1.80;;
52724;SDS011;38621;52.830;6.914;2022-08-02T12:02:29;3.17;;;1.80;;
52724;SDS011;38621;52.830;6.914;2022-08-02T12:05:04;2.95;;;1.55;;
52724;SDS011;38621;52.830;6.914;2022-08-02T12:07:36;2.25;;;1.50;;
52724;SDS011;38621;52.830;6.914;2022-08-02T12:10:04;2.55;;;1.48;;
52724;SDS011;38621;52.830;6.914;2022-08-02T12:12:51;4.13;;;1.40;;
52724;SDS011;38621;52.830;6.914;2022-08-02T12:15:27;2.67;;;1.27;;
52724;SDS011;38621;52.830;6.914;2022-08-02T12:18:02;2.20;;;1.60;;
52724;SDS011;38621;52.830;6.914;2022-08-02T12:20:51;2.90;;;1.45;;
52724;SDS011;38621;52.830;6.914;2022-08-02T12:23:17;2.67;;;1.40;;
52724;SDS011;38621;52.830;6.914;2022-08-02T12:25:43;3.17;;;1.60;;
52724;SDS011;38621;52.830;6.914;2022-08-02T12:28:16;2.63;;;1.40;;
52724;SDS011;38621;52.830;6.914;2022-08-02T12:30:49;2.20;;;1.20;;
52724;SDS011;38621;52.830;6.914;2022-08-02T12:33:20;1.90;;;1.00;;
52724;SDS011;38621;52.830;6.914;2022-08-02T12:35:47;3.65;;;1.30;;
52724;SDS011;38621;52.830;6.914;2022-08-02T12:38:13;2.13;;;1.02;;
52724;SDS011;38621;52.830;6.914;2022-08-02T12:40:38;2.90;;;1.20;;
52724;SDS011;38621;52.830;6.914;2022-08-02T12:43:05;2.60;;;1.40;;
52724;SDS011;38621;52.830;6.914;2022-08-02T12:45:44;2.72;;;1.40;;
52724;SDS011;38621;52.830;6.914;2022-08-02T12:48:12;2.08;;;1.42;;
52724;SDS011;38621;52.830;6.914;2022-08-02T12:50:38;2.25;;;1.58;;
52724;SDS011;38621;52.830;6.914;2022-08-02T12:53:08;2.75;;;1.40;;
52724;SDS011;38621;52.830;6.914;2022-08-02T12:55:36;3.47;;;1.50;;
52724;SDS011;38621;52.830;6.914;2022-08-02T13:00:37;3.20;;;1.60;;
52724;SDS011;38621;52.830;6.914;2022-08-02T13:03:03;3.17;;;1.60;;
52724;SDS011;38621;52.830;6.914;2022-08-02T13:05:31;2.25;;;1.33;;
52724;SDS011;38621;52.830;6.914;2022-08-02T13:08:00;2.67;;;1.40;;
52724;SDS011;38621;52.830;6.914;2022-08-02T13:10:27;3.58;;;1.23;;
52724;SDS011;38621;52.830;6.914;2022-08-02T13:12:53;2.20;;;1.35;;
52724;SDS011;38621;52.830;6.914;2022-08-02T13:15:20;2.17;;;1.40;;
52724;SDS011;38621;52.830;6.914;2022-08-02T13:17:46;2.80;;;1.50;;
52724;SDS011;38621;52.830;6.914;2022-08-02T13:20:12;3.15;;;1.63;;
52724;SDS011;38621;52.830;6.914;2022-08-02T13:22:39;2.53;;;1.65;;
52724;SDS011;38621;52.830;6.914;2022-08-02T13:25:06;3.65;;;2.03;;
52724;SDS011;38621;52.830;6.914;2022-08-02T13:27:32;2.78;;;1.50;;
52724;SDS011;38621;52.830;6.914;2022-08-02T13:29:58;2.30;;;1.50;;
52724;SDS011;38621;52.830;6.914;2022-08-02T13:32:25;2.38;;;1.70;;
52724;SDS011;38621;52.830;6.914;2022-08-02T13:34:53;2.88;;;1.75;;
52724;SDS011;38621;52.830;6.914;2022-08-02T13:37:20;2.40;;;1.40;;
52724;SDS011;38621;52.830;6.914;2022-08-02T13:39:46;2.80;;;1.27;;
52724;SDS011;38621;52.830;6.914;2022-08-02T13:42:12;2.13;;;1.23;;
52724;SDS011;38621;52.830;6.914;2022-08-02T13:44:38;2.08;;;1.20;;
52724;SDS011;38621;52.830;6.914;2022-08-02T13:47:04;2.10;;;1.55;;
52724;SDS011;38621;52.830;6.914;2022-08-02T13:49:29;1.95;;;1.30;;
52724;SDS011;38621;52.830;6.914;2022-08-02T13:51:55;2.67;;;1.35;;
52724;SDS011;38621;52.830;6.914;2022-08-02T13:54:21;3.20;;;1.50;;
52724;SDS011;38621;52.830;6.914;2022-08-02T13:56:46;2.47;;;1.40;;
52724;SDS011;38621;52.830;6.914;2022-08-02T13:59:12;2.70;;;1.40;;
52724;SDS011;38621;52.830;6.914;2022-08-02T14:01:38;2.75;;;1.20;;
52724;SDS011;38621;52.830;6.914;2022-08-02T14:04:04;3.55;;;1.30;;
52724;SDS011;38621;52.830;6.914;2022-08-02T14:06:30;2.55;;;1.10;;
52724;SDS011;38621;52.830;6.914;2022-08-02T14:08:56;2.22;;;1.30;;
52724;SDS011;38621;52.830;6.914;2022-08-02T14:11:21;2.33;;;1.30;;
52724;SDS011;38621;52.830;6.914;2022-08-02T14:13:47;2.00;;;1.35;;
52724;SDS011;38621;52.830;6.914;2022-08-02T14:16:13;1.90;;;1.23;;
52724;SDS011;38621;52.830;6.914;2022-08-02T14:18:38;2.63;;;1.17;;
52724;SDS011;38621;52.830;6.914;2022-08-02T14:21:04;2.42;;;1.30;;
52724;SDS011;38621;52.830;6.914;2022-08-02T14:23:30;2.80;;;1.60;;
52724;SDS011;38621;52.830;6.914;2022-08-02T14:25:56;2.20;;;1.50;;
52724;SDS011;38621;52.830;6.914;2022-08-02T14:28:23;2.70;;;1.73;;
52724;SDS011;38621;52.830;6.914;2022-08-02T14:30:48;2.90;;;1.52;;
52724;SDS011;38621;52.830;6.914;2022-08-02T14:33:14;2.10;;;1.60;;
52724;SDS011;38621;52.830;6.914;2022-08-02T14:35:40;2.33;;;1.60;;
52724;SDS011;38621;52.830;6.914;2022-08-02T14:38:06;2.47;;;1.70;;
52724;SDS011;38621;52.830;6.914;2022-08-02T14:40:32;3.05;;;1.70;;
52724;SDS011;38621;52.830;6.914;2022-08-02T14:42:58;2.90;;;1.70;;
52724;SDS011;38621;52.830;6.914;2022-08-02T14:45:25;3.15;;;1.90;;
52724;SDS011;38621;52.830;6.914;2022-08-02T14:47:53;2.85;;;1.73;;
52724;SDS011;38621;52.830;6.914;2022-08-02T14:50:18;4.05;;;1.88;;
52724;SDS011;38621;52.830;6.914;2022-08-02T14:52:44;2.90;;;1.90;;
52724;SDS011;38621;52.830;6.914;2022-08-02T14:55:12;3.35;;;1.95;;
52724;SDS011;38621;52.830;6.914;2022-08-02T14:57:38;3.58;;;1.90;;
52724;SDS011;38621;52.830;6.914;2022-08-02T15:00:04;2.63;;;1.65;;
52724;SDS011;38621;52.830;6.914;2022-08-02T15:02:31;3.40;;;2.22;;
52724;SDS011;38621;52.830;6.914;2022-08-02T15:04:57;3.45;;;1.73;;
52724;SDS011;38621;52.830;6.914;2022-08-02T15:07:22;3.10;;;2.08;;
52724;SDS011;38621;52.830;6.914;2022-08-02T15:09:48;3.20;;;1.90;;
52724;SDS011;38621;52.830;6.914;2022-08-02T15:12:14;3.15;;;1.80;;
52724;SDS011;38621;52.830;6.914;2022-08-02T15:14:40;2.70;;;1.90;;
52724;SDS011;38621;52.830;6.914;2022-08-02T15:17:06;3.30;;;2.05;;
52724;SDS011;38621;52.830;6.914;2022-08-02T15:19:32;2.80;;;1.88;;
52724;SDS011;38621;52.830;6.914;2022-08-02T15:21:58;2.63;;;1.92;;
52724;SDS011;38621;52.830;6.914;2022-08-02T15:24:24;3.58;;;2.03;;
52724;SDS011;38621;52.830;6.914;2022-08-02T15:26:50;2.50;;;1.92;;
52724;SDS011;38621;52.830;6.914;2022-08-02T15:29:17;2.88;;;2.10;;
52724;SDS011;38621;52.830;6.914;2022-08-02T15:31:44;2.55;;;1.67;;
52724;SDS011;38621;52.830;6.914;2022-08-02T15:34:10;2.80;;;1.80;;